Time;durP1;ratioP1;P1;durP2;ratioP2;P2;SDS_P1;SDS_P2;PMS_P1;PMS_P2;Temp;Humidity;BMP_temperature;BMP_pressure;BME280_temperature;BME280_humidity;BME280_pressure;Samples;Min_cycle;Max_cycle;Signal;HPM_P1;HPM_P2
2021/08/13 00:00:52;;;;;;;26.25;12.80;;;;;;;14.35;56.75;99715.88;125623;1095;102916;-76
2021/08/13 00:03:20;;;;;;;24.57;10.83;;;;;;;14.35;57.12;99711.36;125711;1095;103037;-75
2021/08/13 00:05:49;;;;;;;23.50;11.03;;;;;;;14.36;57.22;99710.38;125595;1096;102935;-75
2021/08/13 00:08:18;;;;;;;22.17;11.27;;;;;;;14.35;57.05;99707.84;125675;1096;102923;-75
2021/08/13 00:10:46;;;;;;;23.30;10.93;;;;;;;14.29;57.02;99710.02;125667;1096;103124;-75
2021/08/13 00:13:23;;;;;;;20.27;10.20;;;;;;;14.20;57.36;99708.06;125661;1095;102914;-75
2021/08/13 00:15:52;;;;;;;;;;;;;;;14.08;57.95;99709.87;125726;1094;102910;-77
2021/08/13 00:18:20;;;;;;;22.30;11.40;;;;;;;13.97;57.23;99704.48;125698;1094;103020;-74
2021/08/13 00:20:48;;;;;;;21.07;10.43;;;;;;;13.84;57.65;99700.09;125690;1095;102916;-76
2021/08/13 00:23:17;;;;;;;22.95;10.95;;;;;;;13.78;57.96;99702.37;125689;1095;103409;-77
2021/08/13 00:25:46;;;;;;;22.67;11.50;;;;;;;13.74;57.64;99700.89;125652;1094;103012;-75
2021/08/13 00:28:14;;;;;;;24.43;11.53;;;;;;;13.72;57.83;99701.02;125696;1095;103072;-76
2021/08/13 00:30:42;;;;;;;22.60;10.80;;;;;;;13.69;58.10;99698.58;125673;1096;103038;-75
2021/08/13 00:33:11;;;;;;;23.90;10.70;;;;;;;13.64;58.38;99706.96;125657;1095;103007;-75
2021/08/13 00:35:43;;;;;;;21.30;11.17;;;;;;;13.59;58.44;99705.58;125664;1096;102916;-75
2021/08/13 00:38:11;;;;;;;21.60;11.87;;;;;;;13.52;58.54;99706.04;125704;1095;102923;-76
2021/08/13 00:40:40;;;;;;;22.63;10.73;;;;;;;13.49;58.75;99706.27;125725;1094;102937;-76
2021/08/13 00:43:08;;;;;;;22.67;10.83;;;;;;;13.48;58.89;99698.38;125688;1094;102917;-75
2021/08/13 00:45:36;;;;;;;22.30;10.60;;;;;;;13.46;59.09;99695.80;125613;1096;103001;-76
2021/08/13 00:48:05;;;;;;;21.27;11.23;;;;;;;13.51;59.20;99698.15;125725;1094;103071;-76
2021/08/13 00:50:37;;;;;;;23.77;11.13;;;;;;;13.51;59.27;99701.66;125652;1096;103306;-75
2021/08/13 00:53:08;;;;;;;26.77;11.30;;;;;;;13.53;59.18;99706.91;125638;1096;102916;-76
2021/08/13 00:55:45;;;;;;;22.55;10.70;;;;;;;13.53;59.24;99698.89;125654;1095;103453;-78
2021/08/13 00:58:21;;;;;;;27.67;12.03;;;;;;;13.54;59.32;99701.43;125713;1095;102935;-80
2021/08/13 01:00:55;;;;;;;23.70;13.27;;;;;;;13.58;59.49;99706.55;125680;1096;103019;-79
2021/08/13 01:03:24;;;;;;;25.80;12.73;;;;;;;13.59;59.32;99705.58;125693;1095;103009;-78
2021/08/13 01:05:53;;;;;;;25.30;11.97;;;;;;;13.59;59.68;99701.10;125701;1092;103081;-76
2021/08/13 01:08:22;;;;;;;23.90;11.33;;;;;;;13.59;59.62;99709.13;125683;1093;103085;-77
2021/08/13 01:11:19;;;;;;;24.33;11.60;;;;;;;13.55;59.70;99704.97;125704;1093;102998;-75
2021/08/13 01:13:53;;;;;;;23.60;11.20;;;;;;;13.49;59.65;99702.75;125689;1093;103048;-75
2021/08/13 01:16:25;;;;;;;25.27;11.90;;;;;;;13.49;59.80;99702.75;125676;1093;103001;-76
2021/08/13 01:19:15;;;;;;;21.30;10.43;;;;;;;13.52;60.02;99706.04;125713;1093;103020;-77
2021/08/13 01:21:57;;;;;;;22.20;10.27;;;;;;;13.56;60.30;99704.01;125678;1093;102935;-76
2021/08/13 01:24:33;;;;;;;22.83;10.50;;;;;;;13.61;60.35;99704.52;125722;1093;102939;-76
2021/08/13 01:27:05;;;;;;;23.67;10.80;;;;;;;13.68;60.19;99702.22;125743;1093;101800;-77
2021/08/13 01:30:06;;;;;;;22.03;10.83;;;;;;;13.74;60.36;99700.89;125720;1093;103022;-79
2021/08/13 01:32:43;;;;;;;22.50;10.87;;;;;;;13.80;60.68;99711.13;125701;1093;102935;-78
2021/08/13 01:35:25;;;;;;;21.70;11.17;;;;;;;13.84;60.62;99702.77;125700;1093;103095;-78
2021/08/13 01:37:59;;;;;;;21.13;10.50;;;;;;;13.85;60.59;99714.30;125719;1093;102948;-78
2021/08/13 01:40:33;;;;;;;21.30;10.23;;;;;;;13.81;60.37;99719.05;125676;1093;103088;-77
2021/08/13 01:43:21;;;;;;;20.57;9.97;;;;;;;13.74;60.49;99714.26;125658;1093;102970;-77
2021/08/13 01:45:54;;;;;;;22.20;10.83;;;;;;;13.70;60.32;99713.66;125691;1093;103090;-77
2021/08/13 01:48:29;;;;;;;19.63;10.27;;;;;;;13.68;60.73;99726.28;125699;1093;102913;-76
2021/08/13 01:51:01;;;;;;;20.93;10.50;;;;;;;13.67;60.69;99716.55;125672;1094;103061;-77
2021/08/13 01:53:34;;;;;;;23.27;10.73;;;;;;;13.68;60.94;99720.94;125685;1093;102915;-75
2021/08/13 01:56:08;;;;;;;19.20;9.75;;;;;;;13.67;60.79;99717.39;125677;1094;102935;-74
2021/08/13 01:58:41;;;;;;;19.70;9.30;;;;;;;13.63;61.04;99721.30;125707;1093;102904;-76
2021/08/13 02:01:14;;;;;;;21.87;10.53;;;;;;;13.54;60.92;99720.14;125626;1093;103113;-76
2021/08/13 02:03:44;;;;;;;24.00;11.37;;;;;;;13.45;60.90;99723.49;125662;1093;102933;-76
2021/08/13 02:06:16;;;;;;;22.83;11.30;;;;;;;13.46;61.08;99719.02;125665;1093;103128;-77
2021/08/13 02:08:49;;;;;;;26.53;12.03;;;;;;;13.41;61.11;99727.39;125659;1093;102975;-76
2021/08/13 02:11:19;;;;;;;21.73;11.13;;;;;;;13.37;61.31;99724.04;125682;1093;102908;-78
2021/08/13 02:13:47;;;;;;;22.10;10.63;;;;;;;13.37;61.38;99733.89;125696;1096;102919;-77
2021/08/13 02:16:27;;;;;;;23.95;10.50;;;;;;;13.38;61.72;99730.25;125773;1096;103001;-79
2021/08/13 02:19:26;;;;;;;22.30;10.93;;;;;;;13.42;61.49;99715.73;125767;1097;103137;-78
2021/08/13 02:22:00;;;;;;;21.53;10.47;;;;;;;13.46;61.78;99721.69;125652;1097;103572;-77
2021/08/13 02:24:29;;;;;;;22.50;12.30;;;;;;;13.49;61.97;99721.46;125735;1096;102944;-79
2021/08/13 02:27:02;;;;;;;24.10;11.83;;;;;;;13.52;62.07;99723.91;125712;1095;102916;-81
2021/08/13 02:29:30;;;;;;;18.73;9.80;;;;;;;13.52;62.05;99722.07;125702;1097;103037;-79
2021/08/13 02:32:03;;;;;;;20.43;10.60;;;;;;;13.51;62.02;99731.06;125771;1095;103003;-81
2021/08/13 02:34:36;;;;;;;22.63;11.40;;;;;;;13.49;61.97;99730.31;125688;1094;102926;-77
2021/08/13 02:37:18;;;;;;;22.28;10.98;;;;;;;13.47;62.26;99731.41;125695;1093;103011;-79
2021/08/13 02:39:53;;;;;;;21.97;11.20;;;;;;;13.44;61.81;99728.97;125624;1093;103367;-80
2021/08/13 02:42:49;;;;;;;22.20;11.73;;;;;;;13.40;62.08;99726.48;125719;1096;103012;-80
2021/08/13 02:45:23;;;;;;;21.33;10.57;;;;;;;13.37;62.20;99728.55;125692;1095;103007;-76
2021/08/13 02:47:59;;;;;;;22.27;11.37;;;;;;;13.34;62.32;99728.77;125607;1096;103031;-76
2021/08/13 02:50:33;;;;;;;21.15;10.40;;;;;;;13.30;62.18;99727.28;125674;1096;103000;-80
2021/08/13 02:53:06;;;;;;;;;;;;;;;13.23;62.97;99721.55;125700;1096;102921;-80
2021/08/13 02:56:02;;;;;;;20.83;11.30;;;;;;;13.17;62.23;99728.17;125676;1096;102917;-77
2021/08/13 02:58:42;;;;;;;20.97;10.60;;;;;;;13.15;62.42;99727.44;125767;1096;102928;-79
2021/08/13 03:01:23;;;;;;;24.33;11.13;;;;;;;13.08;62.38;99724.38;125704;1096;103099;-78
2021/08/13 03:03:56;;;;;;;21.67;10.07;;;;;;;13.08;62.56;99731.52;125763;1093;103013;-79
2021/08/13 03:06:33;;;;;;;21.28;10.88;;;;;;;13.13;62.72;99731.20;125738;1093;103546;-78
2021/08/13 03:09:06;;;;;;;20.73;10.43;;;;;;;13.20;62.68;99730.63;125752;1093;102995;-78
2021/08/13 03:11:42;;;;;;;20.30;9.80;;;;;;;13.25;62.88;99731.15;125686;1093;103034;-78
2021/08/13 03:14:15;;;;;;;20.10;9.77;;;;;;;13.23;62.81;99737.58;125707;1096;103038;-78
2021/08/13 03:16:49;;;;;;;20.30;10.55;;;;;;;13.22;63.06;99735.88;125773;1096;103097;-78
2021/08/13 03:19:23;;;;;;;19.10;9.47;;;;;;;13.21;63.22;99737.67;125723;1096;103029;-78
2021/08/13 03:21:58;;;;;;;20.10;9.80;;;;;;;13.19;62.93;99744.11;125703;1097;102980;-79
2021/08/13 03:24:31;;;;;;;20.13;9.90;;;;;;;13.19;63.30;99736.94;125742;1096;103024;-79
2021/08/13 03:27:05;;;;;;;20.48;10.23;;;;;;;13.21;63.29;99734.17;125697;1096;102916;-77
2021/08/13 03:29:33;;;;;;;21.43;10.10;;;;;;;13.25;63.26;99741.83;125697;1096;103017;-78
2021/08/13 03:32:07;;;;;;;20.77;9.50;;;;;;;13.23;63.24;99734.91;125722;1095;102916;-77
2021/08/13 03:34:39;;;;;;;20.47;10.13;;;;;;;13.24;63.57;99732.11;125751;1096;102913;-78
2021/08/13 03:37:08;;;;;;;19.63;9.63;;;;;;;13.23;63.27;99730.41;125715;1096;103064;-80
2021/08/13 03:39:36;;;;;;;20.53;9.50;;;;;;;13.22;63.27;99730.53;125780;1096;102909;-80
2021/08/13 03:42:09;;;;;;;21.58;10.80;;;;;;;13.23;63.54;99732.23;125807;1096;102916;-83
2021/08/13 03:44:37;;;;;;;20.70;10.37;;;;;;;13.25;63.41;99736.48;125804;1095;102994;-80
2021/08/13 03:47:06;;;;;;;19.60;9.25;;;;;;;13.23;63.50;99734.91;125828;1096;102937;-81
2021/08/13 03:49:34;;;;;;;20.50;9.23;;;;;;;13.23;63.73;99726.89;125798;1096;103025;-81
2021/08/13 03:52:06;;;;;;;19.73;9.93;;;;;;;13.21;63.48;99726.16;125755;1097;103065;-81
2021/08/13 03:54:35;;;;;;;21.90;10.50;;;;;;;13.23;63.82;99732.23;125863;1096;103097;-79
2021/08/13 03:57:03;;;;;;;21.47;9.83;;;;;;;13.27;63.74;99732.85;126015;1094;103173;-79
2021/08/13 03:59:32;;;;;;;20.03;10.67;;;;;;;13.31;63.91;99728.99;125948;1093;103414;-78
2021/08/13 04:02:00;;;;;;;20.63;10.40;;;;;;;13.38;63.98;99727.58;125744;1096;103074;-78
2021/08/13 04:04:32;;;;;;;21.93;10.20;;;;;;;13.46;63.99;99729.70;125740;1094;103036;-77
2021/08/13 04:07:01;;;;;;;20.50;9.40;;;;;;;13.49;64.12;99735.66;125726;1096;102928;-78
2021/08/13 04:09:29;;;;;;;20.20;10.10;;;;;;;13.53;64.09;99730.96;125686;1096;102937;-78
2021/08/13 04:11:58;;;;;;;20.80;10.07;;;;;;;13.55;64.29;99729.86;125746;1094;103015;-78
2021/08/13 04:14:32;;;;;;;18.40;9.63;;;;;;;13.60;64.24;99734.02;125722;1096;102907;-75
2021/08/13 04:17:00;;;;;;;20.93;9.83;;;;;;;13.66;64.24;99725.55;125658;1095;103022;-80
2021/08/13 04:19:29;;;;;;;21.93;10.27;;;;;;;13.74;64.32;99727.63;125720;1096;103033;-77
2021/08/13 04:21:57;;;;;;;19.20;8.95;;;;;;;13.79;64.18;99731.68;125735;1095;103419;-76
2021/08/13 04:24:33;;;;;;;20.80;9.77;;;;;;;13.85;64.63;99735.70;125686;1096;103030;-74
2021/08/13 04:27:01;;;;;;;20.17;9.60;;;;;;;13.93;64.54;99732.43;125677;1096;103084;-76
2021/08/13 04:29:29;;;;;;;19.40;9.63;;;;;;;14.01;64.46;99731.86;125695;1096;103090;-73
2021/08/13 04:31:58;;;;;;;23.23;9.73;;;;;;;14.08;64.57;99738.42;125694;1096;102913;-74
2021/08/13 04:34:26;;;;;;;18.83;9.67;;;;;;;14.13;64.41;99739.80;125677;1096;103023;-76
2021/08/13 04:36:54;;;;;;;19.07;9.10;;;;;;;14.20;64.41;99744.67;125652;1095;102945;-73
2021/08/13 04:39:23;;;;;;;19.30;9.40;;;;;;;14.27;64.60;99740.53;125630;1094;103188;-81
2021/08/13 04:41:51;;;;;;;18.77;9.43;;;;;;;14.32;64.72;99748.22;127668;1094;102717;-82
2021/08/13 04:44:20;;;;;;;18.00;9.80;;;;;;;14.39;64.76;99752.13;126278;1096;101680;-81
2021/08/13 04:46:48;;;;;;;20.53;9.63;;;;;;;14.45;64.86;99751.66;126049;1095;103038;-77
2021/08/13 04:49:17;;;;;;;19.50;8.90;;;;;;;14.50;64.48;99757.47;125626;1094;102910;-75
2021/08/13 04:51:45;;;;;;;18.80;8.83;;;;;;;14.55;64.71;99757.13;125596;1097;102916;-76
2021/08/13 04:54:13;;;;;;;17.20;8.60;;;;;;;14.58;64.77;99760.41;125663;1096;102993;-76
2021/08/13 04:56:42;;;;;;;17.13;8.17;;;;;;;14.63;64.81;99767.23;125703;1095;102942;-75
2021/08/13 04:59:10;;;;;;;18.03;9.17;;;;;;;14.66;64.88;99757.14;125694;1095;102948;-74
2021/08/13 05:01:38;;;;;;;19.23;8.37;;;;;;;14.71;64.80;99764.84;125724;1096;102942;-75
2021/08/13 05:04:07;;;;;;;17.90;8.80;;;;;;;14.73;64.80;99770.92;125672;1096;102930;-74
2021/08/13 05:06:39;;;;;;;19.73;9.30;;;;;;;14.74;64.79;99773.47;125666;1095;103364;-74
2021/08/13 05:09:08;;;;;;;18.27;8.93;;;;;;;14.79;64.85;99775.80;125669;1096;103100;-73
2021/08/13 05:11:40;;;;;;;18.90;8.73;;;;;;;14.86;64.98;99777.02;125667;1096;103020;-72
2021/08/13 05:14:08;;;;;;;19.97;9.03;;;;;;;14.94;64.99;99773.72;125681;1095;102936;-73
2021/08/13 05:16:37;;;;;;;18.53;9.53;;;;;;;15.01;65.05;99777.63;125698;1095;103103;-74
2021/08/13 05:19:05;;;;;;;18.90;9.53;;;;;;;15.09;65.00;99773.45;125696;1096;103010;-74
2021/08/13 05:21:40;;;;;;;20.80;10.00;;;;;;;15.16;65.20;99771.98;125676;1096;103090;-73
2021/08/13 05:24:08;;;;;;;18.70;8.90;;;;;;;15.23;65.03;99775.88;125691;1094;102919;-74
2021/08/13 05:26:40;;;;;;;16.97;8.70;;;;;;;15.27;65.04;99773.81;125720;1095;102927;-74
2021/08/13 05:29:12;;;;;;;17.43;8.57;;;;;;;15.28;65.02;99773.67;125717;1096;103040;-75
2021/08/13 05:31:45;;;;;;;20.93;9.30;;;;;;;15.30;65.04;99776.22;125671;1097;103000;-74
2021/08/13 05:34:14;;;;;;;21.73;8.75;;;;;;;15.29;65.13;99785.23;125704;1096;102916;-76
2021/08/13 05:36:42;;;;;;;19.45;9.30;;;;;;;15.32;65.12;99782.31;125738;1094;103448;-78
2021/08/13 05:39:14;;;;;;;20.60;9.73;;;;;;;15.39;65.34;99788.04;125640;1095;102950;-75
2021/08/13 05:41:43;;;;;;;20.60;8.80;;;;;;;15.46;65.34;99784.72;125694;1096;103540;-74
2021/08/13 05:44:11;;;;;;;21.07;9.47;;;;;;;15.55;65.40;99777.74;125620;1096;102906;-76
2021/08/13 05:46:46;;;;;;;19.47;9.23;;;;;;;15.64;65.48;99768.11;125641;1095;102959;-74
2021/08/13 05:49:14;;;;;;;17.93;9.27;;;;;;;15.71;65.50;99761.23;125663;1095;102952;-74
2021/08/13 05:51:43;;;;;;;19.67;9.80;;;;;;;15.80;65.60;99753.41;125665;1094;102950;-74
2021/08/13 05:54:11;;;;;;;18.27;8.70;;;;;;;15.89;65.57;99755.35;125671;1097;102943;-74
2021/08/13 05:56:39;;;;;;;18.77;8.80;;;;;;;15.94;65.54;99755.82;125660;1097;102999;-75
2021/08/13 05:59:08;;;;;;;25.43;9.77;;;;;;;16.01;65.53;99748.09;125655;1094;102965;-75
2021/08/13 06:01:36;;;;;;;26.47;9.40;;;;;;;16.07;65.48;99747.58;125584;1095;103094;-74
2021/08/13 06:04:06;;;;;;;24.53;10.20;;;;;;;16.19;65.76;99751.04;125701;1096;102922;-76
2021/08/13 06:06:34;;;;;;;18.83;9.03;;;;;;;16.33;65.53;99745.34;125669;1097;103020;-75
2021/08/13 06:09:10;;;;;;;21.40;9.40;;;;;;;16.44;65.65;99749.78;125657;1096;103042;-75
2021/08/13 06:11:39;;;;;;;23.23;10.17;;;;;;;16.56;65.58;99747.86;125675;1095;102929;-75
2021/08/13 06:14:07;;;;;;;26.00;10.73;;;;;;;16.64;65.43;99747.20;125658;1096;103424;-73
2021/08/13 06:16:41;;;;;;;21.17;10.50;;;;;;;16.73;65.35;99749.06;125665;1096;102980;-75
2021/08/13 06:19:09;;;;;;;21.30;10.00;;;;;;;16.82;65.38;99755.48;125690;1096;103036;-75
2021/08/13 06:21:38;;;;;;;27.87;11.47;;;;;;;16.90;65.53;99754.80;125608;1096;103048;-73
2021/08/13 06:24:06;;;;;;;22.30;9.90;;;;;;;16.98;65.37;99762.20;125720;1095;102942;-75
2021/08/13 06:26:38;;;;;;;20.03;9.47;;;;;;;17.04;65.64;99765.22;125694;1095;103037;-75
2021/08/13 06:29:07;;;;;;;19.13;8.67;;;;;;;17.11;65.68;99755.63;125703;1094;102913;-74
2021/08/13 06:31:35;;;;;;;20.80;9.13;;;;;;;17.23;65.65;99758.17;125667;1097;102940;-75
2021/08/13 06:34:03;;;;;;;19.50;9.03;;;;;;;17.33;65.69;99759.05;125610;1095;102997;-77
2021/08/13 06:36:32;;;;;;;23.77;9.27;;;;;;;17.43;65.38;99761.75;125745;1095;102913;-77
2021/08/13 06:39:03;;;;;;;16.83;8.57;;;;;;;17.53;65.61;99762.63;125635;1094;102916;-76
2021/08/13 06:41:31;;;;;;;15.83;7.90;;;;;;;17.64;65.70;99766.18;125682;1095;102917;-75
2021/08/13 06:44:00;;;;;;;16.30;8.60;;;;;;;17.74;65.24;99768.88;125689;1094;103064;-76
2021/08/13 06:46:28;;;;;;;20.03;8.97;;;;;;;17.84;65.16;99765.19;125639;1095;102938;-75
2021/08/13 06:48:56;;;;;;;18.80;8.90;;;;;;;17.97;65.23;99770.27;125716;1096;102916;-74
2021/08/13 06:51:25;;;;;;;21.97;9.13;;;;;;;18.08;65.52;99771.16;125670;1096;103090;-76
2021/08/13 06:53:53;;;;;;;22.13;9.37;;;;;;;18.21;65.10;99768.16;125723;1094;102913;-77
2021/08/13 06:56:21;;;;;;;26.13;11.13;;;;;;;18.35;65.36;99767.72;125751;1095;103055;-77
2021/08/13 06:58:50;;;;;;;23.37;10.00;;;;;;;18.50;65.37;99775.35;125667;1095;102721;-77
2021/08/13 07:01:18;;;;;;;22.00;10.10;;;;;;;18.64;65.27;99774.03;125687;1095;103042;-76
2021/08/13 07:03:50;;;;;;;27.63;9.90;;;;;;;18.81;65.15;99773.25;125644;1093;103096;-77
2021/08/13 07:06:18;;;;;;;22.00;9.20;;;;;;;18.98;65.20;99777.03;125689;1095;103114;-75
2021/08/13 07:08:46;;;;;;;19.70;8.50;;;;;;;19.17;65.13;99776.09;125616;1096;102971;-76
2021/08/13 07:11:15;;;;;;;18.93;9.07;;;;;;;19.39;65.28;99784.78;125664;1095;103029;-76
2021/08/13 07:13:43;;;;;;;21.17;9.07;;;;;;;19.87;64.81;99782.73;125690;1093;102926;-74
2021/08/13 07:16:12;;;;;;;18.60;7.37;;;;;;;21.37;63.58;99773.72;125679;1092;102943;-76
2021/08/13 07:18:44;;;;;;;18.18;7.85;;;;;;;22.78;62.72;99774.63;125709;1093;103425;-80
2021/08/13 07:21:13;;;;;;;16.83;7.90;;;;;;;24.04;62.81;99784.71;125754;1093;103152;-80
2021/08/13 07:23:41;;;;;;;16.33;6.40;;;;;;;25.37;62.50;99782.27;125736;1093;102994;-78
2021/08/13 07:26:13;;;;;;;16.33;6.83;;;;;;;26.42;62.58;99770.95;125668;1093;102984;-78
2021/08/13 07:28:42;;;;;;;12.13;5.78;;;;;;;27.31;61.92;99776.73;125641;1093;103055;-77
2021/08/13 07:31:10;;;;;;;11.93;5.50;;;;;;;28.31;61.41;99777.18;125671;1093;102938;-76
2021/08/13 07:33:38;;;;;;;14.60;5.87;;;;;;;28.78;60.96;99763.45;125676;1093;102916;-81
2021/08/13 07:36:07;;;;;;;10.13;5.60;;;;;;;29.49;61.23;99772.66;125640;1094;102913;-78
2021/08/13 07:38:40;;;;;;;11.53;5.80;;;;;;;28.89;61.12;99770.15;125737;1093;103380;-77
2021/08/13 07:41:13;;;;;;;68.80;7.87;;;;;;;29.17;61.43;99780.80;125660;1093;103001;-76
2021/08/13 07:43:42;;;;;;;10.73;5.30;;;;;;;30.59;60.96;99773.36;125705;1093;102927;-79
2021/08/13 07:46:10;;;;;;;11.57;4.90;;;;;;;30.58;59.83;99777.17;125701;1093;102927;-81
2021/08/13 07:48:42;;;;;;;12.53;4.87;;;;;;;31.25;58.42;99786.59;125668;1093;103502;-78
2021/08/13 07:51:10;;;;;;;8.13;4.30;;;;;;;31.06;57.84;99784.88;125742;1092;102923;-76
2021/08/13 07:53:38;;;;;;;9.63;4.90;;;;;;;30.72;56.84;99780.61;125715;1093;102942;-80
2021/08/13 07:56:07;;;;;;;12.27;4.80;;;;;;;30.36;56.97;99779.45;125671;1094;102932;-72
2021/08/13 07:58:38;;;;;;;12.47;5.37;;;;;;;30.40;57.10;99783.44;125726;1093;102913;-80
2021/08/13 08:01:07;;;;;;;12.50;5.20;;;;;;;31.28;55.71;99779.78;125640;1093;103015;-75
2021/08/13 08:03:39;;;;;;;12.60;5.10;;;;;;;31.91;55.66;99785.92;125675;1095;102916;-74
2021/08/13 08:06:08;;;;;;;10.73;4.80;;;;;;;32.52;55.07;99780.27;125712;1095;103034;-74
2021/08/13 08:08:36;;;;;;;13.77;5.13;;;;;;;32.96;54.69;99780.73;125667;1093;103009;-75
2021/08/13 08:11:07;;;;;;;9.80;4.97;;;;;;;33.40;54.61;99784.95;125686;1093;103422;-78
2021/08/13 08:13:35;;;;;;;11.67;4.13;;;;;;;33.37;53.57;99791.77;125682;1092;102911;-76
2021/08/13 08:16:08;;;;;;;7.60;4.53;;;;;;;32.96;53.15;99785.42;125677;1093;102966;-77
2021/08/13 08:18:36;;;;;;;9.87;4.70;;;;;;;32.52;52.64;99791.28;125623;1093;102939;-76
2021/08/13 08:21:05;;;;;;;8.03;4.60;;;;;;;31.87;52.79;99792.97;125695;1093;103010;-76
2021/08/13 08:23:33;;;;;;;10.57;4.60;;;;;;;32.00;52.80;99792.73;125716;1092;103547;-78
2021/08/13 08:26:05;;;;;;;8.60;4.90;;;;;;;32.12;52.22;99790.03;125605;1094;103089;-78
2021/08/13 08:28:33;;;;;;;;;;;;;;;32.68;50.19;99789.72;125655;1093;103016;-73
2021/08/13 08:31:02;;;;;;;11.80;4.93;;;;;;;32.99;49.75;99784.08;125673;1093;102938;-72
2021/08/13 08:33:30;;;;;;;11.03;4.73;;;;;;;33.42;50.03;99787.48;125690;1093;103041;-72
2021/08/13 08:35:58;;;;;;;18.40;6.15;;;;;;;33.61;49.14;99779.84;125689;1092;102954;-74
2021/08/13 08:38:28;;;;;;;10.27;4.90;;;;;;;33.70;48.29;99776.43;125612;1093;102998;-72
2021/08/13 08:41:02;;;;;;;11.20;4.30;;;;;;;33.74;46.47;99765.72;125703;1093;103059;-73
2021/08/13 08:43:32;;;;;;;9.00;4.60;;;;;;;33.22;46.68;99775.73;125672;1093;102939;-72
2021/08/13 08:46:03;;;;;;;7.83;4.40;;;;;;;33.28;45.77;99778.60;125835;1093;102938;-75
2021/08/13 08:48:37;;;;;;;9.43;4.00;;;;;;;33.05;46.17;99777.60;125671;1093;103034;-74
2021/08/13 08:51:08;;;;;;;10.53;4.87;;;;;;;33.44;44.68;99777.86;125636;1093;102935;-68
2021/08/13 08:53:42;;;;;;;6.90;3.47;;;;;;;33.24;43.83;99781.02;126647;1093;103007;-77
2021/08/13 08:56:18;;;;;;;7.33;4.00;;;;;;;32.69;43.38;99774.86;125660;1093;103461;-73
2021/08/13 08:58:51;;;;;;;8.23;3.70;;;;;;;32.52;42.54;99791.28;125703;1092;102933;-74
2021/08/13 09:01:25;;;;;;;9.20;4.30;;;;;;;32.29;40.92;99783.84;125721;1093;102933;-73
2021/08/13 09:03:57;;;;;;;9.50;4.40;;;;;;;31.87;42.40;99782.78;125693;1093;103003;-73
2021/08/13 09:06:25;;;;;;;;;;;;;;;31.89;42.77;99780.64;125783;1093;102719;-75
2021/08/13 09:08:54;;;;;;;7.80;3.80;;;;;;;32.10;43.09;99775.67;125661;1093;103012;-73
2021/08/13 09:11:23;;;;;;;7.30;3.70;;;;;;;32.48;42.23;99782.67;125681;1093;102916;-73
2021/08/13 09:14:06;;;;;;;8.90;4.07;;;;;;;32.46;40.94;99787.58;125667;1092;102935;-75
2021/08/13 09:16:35;;;;;;;9.13;3.70;;;;;;;32.23;41.23;99774.61;125639;1092;103010;-74
2021/08/13 09:19:10;;;;;;;9.83;4.23;;;;;;;32.37;38.86;99780.75;125702;1095;103185;-74
2021/08/13 09:21:38;;;;;;;7.50;3.97;;;;;;;32.02;39.90;99774.09;125659;1093;103364;-74
2021/08/13 09:24:17;;;;;;;7.20;3.77;;;;;;;32.08;40.78;99791.58;125774;1093;102911;-73
2021/08/13 09:26:45;;;;;;;11.20;4.00;;;;;;;32.20;40.44;99777.83;125689;1093;103045;-73
2021/08/13 09:29:20;;;;;;;6.10;3.90;;;;;;;32.48;40.22;99779.06;125670;1093;103092;-75
2021/08/13 09:31:52;;;;;;;9.03;4.13;;;;;;;32.45;39.51;99785.05;125722;1093;103012;-75
2021/08/13 09:34:27;;;;;;;10.17;4.43;;;;;;;32.30;39.06;99780.02;125701;1092;102935;-75
2021/08/13 09:36:56;;;;;;;8.83;3.97;;;;;;;31.95;38.94;99781.63;125716;1093;102950;-75
2021/08/13 09:39:32;;;;;;;6.43;3.80;;;;;;;31.93;38.60;99770.84;125670;1093;102913;-76
2021/08/13 09:42:09;;;;;;;6.57;3.77;;;;;;;31.89;39.17;99777.07;125619;1093;103664;-74
2021/08/13 09:44:42;;;;;;;8.00;3.87;;;;;;;32.23;37.75;99769.11;125681;1093;102984;-76
2021/08/13 09:47:17;;;;;;;7.63;3.90;;;;;;;32.17;38.24;99770.05;125654;1093;102916;-73
2021/08/13 09:49:55;;;;;;;10.10;4.00;;;;;;;32.43;38.09;99763.28;125736;1093;102913;-75
2021/08/13 09:52:26;;;;;;;10.63;4.23;;;;;;;32.81;37.64;99759.17;125679;1093;103061;-75
2021/08/13 09:55:16;;;;;;;7.45;3.90;;;;;;;32.83;38.22;99747.08;125547;1093;103060;-74
2021/08/13 09:57:46;;;;;;;5.83;3.70;;;;;;;33.05;38.59;99755.56;125575;1093;103000;-75
2021/08/13 10:00:21;;;;;;;8.30;4.20;;;;;;;32.94;36.31;99754.52;125549;1093;103023;-76
2021/08/13 10:02:49;;;;;;;9.80;3.83;;;;;;;32.28;37.02;99749.11;125654;1092;102921;-76
2021/08/13 10:05:27;;;;;;;12.17;3.83;;;;;;;31.84;36.98;99754.93;125595;1092;103017;-75
2021/08/13 10:08:03;;;;;;;8.23;3.90;;;;;;;31.39;36.81;99756.17;125625;1093;103087;-75
2021/08/13 10:10:34;;;;;;;5.73;3.40;;;;;;;31.03;36.93;99758.73;125633;1093;102987;-74
2021/08/13 10:13:07;;;;;;;;;;;;;;;30.81;36.85;99756.43;125674;1093;102938;-73
2021/08/13 10:15:44;;;;;;;5.23;3.55;;;;;;;30.68;37.36;99756.59;125649;1092;103065;-75
2021/08/13 10:18:17;;;;;;;6.67;3.60;;;;;;;30.56;37.00;99760.05;125598;1093;103074;-80
2021/08/13 10:20:50;;;;;;;6.77;3.50;;;;;;;30.43;36.68;99766.52;125597;1093;103068;-78
2021/08/13 10:23:22;;;;;;;8.20;3.85;;;;;;;30.04;35.58;99757.58;125653;1093;102913;-76
2021/08/13 10:25:51;;;;;;;8.20;3.47;;;;;;;29.71;36.31;99751.23;125575;1093;103023;-75
2021/08/13 10:28:25;;;;;;;7.13;3.53;;;;;;;29.64;36.92;99746.88;125567;1093;102949;-75
2021/08/13 10:31:02;;;;;;;9.03;3.83;;;;;;;29.62;36.29;99752.55;125702;1093;102917;-77
2021/08/13 10:33:30;;;;;;;7.53;3.67;;;;;;;29.59;36.86;99746.69;125652;1092;103005;-76
2021/08/13 10:36:03;;;;;;;8.60;3.77;;;;;;;29.52;35.85;99744.82;125619;1093;103061;-75
2021/08/13 10:38:32;;;;;;;7.03;3.77;;;;;;;29.31;35.95;99742.40;125642;1092;102995;-75
2021/08/13 10:41:04;;;;;;;6.10;3.60;;;;;;;29.26;36.05;99734.81;125622;1093;102996;-77
2021/08/13 10:43:36;;;;;;;9.63;3.98;;;;;;;29.13;36.26;99734.90;125595;1092;103010;-74
2021/08/13 10:46:09;;;;;;;12.13;4.07;;;;;;;29.05;36.26;99742.30;125544;1093;102944;-78
2021/08/13 10:48:44;;;;;;;11.30;3.80;;;;;;;28.95;35.84;99733.70;125521;1091;103423;-79
2021/08/13 10:51:24;;;;;;;6.30;3.80;;;;;;;28.84;35.95;99729.74;125517;1095;102927;-83
2021/08/13 10:54:06;;;;;;;12.60;4.27;;;;;;;28.67;36.38;99732.08;126028;1092;103509;-81
2021/08/13 10:56:43;;;;;;;9.15;3.85;;;;;;;28.54;36.08;99727.45;125574;1092;102912;-70
2021/08/13 10:59:34;;;;;;;6.83;3.20;;;;;;;28.32;35.50;99729.63;125912;1093;103493;-77
2021/08/13 11:02:19;;;;;;;9.20;3.97;;;;;;;27.85;35.32;99724.98;125621;1093;103374;-76
2021/08/13 11:04:50;;;;;;;7.13;3.50;;;;;;;27.63;35.79;99727.05;127665;1094;101153;-78
2021/08/13 11:07:54;;;;;;;7.93;3.50;;;;;;;27.55;35.80;99719.05;126198;1096;102949;-79
2021/08/13 11:10:37;;;;;;;5.63;3.25;;;;;;;27.48;34.97;99719.05;125643;1094;102936;-76
2021/08/13 11:13:17;;;;;;;7.27;3.43;;;;;;;27.19;35.28;99721.88;125595;1096;103060;-78
2021/08/13 11:15:49;;;;;;;7.93;3.60;;;;;;;26.99;35.20;99713.61;125639;1095;102932;-76
2021/08/13 11:18:36;;;;;;;8.93;3.60;;;;;;;26.78;35.26;99713.67;125593;1095;103118;-76
2021/08/13 11:21:11;;;;;;;6.57;3.47;;;;;;;26.63;35.31;99714.66;125621;1096;103037;-77
2021/08/13 11:24:18;;;;;;;8.63;3.60;;;;;;;26.62;35.49;99704.80;125652;1093;103031;-75
2021/08/13 11:26:56;;;;;;;10.53;3.40;;;;;;;26.64;35.37;99716.35;125595;1095;102917;-72
2021/08/13 11:29:27;;;;;;;6.85;3.20;;;;;;;26.58;35.42;99707.06;125611;1095;103037;-76
2021/08/13 11:32:02;;;;;;;9.20;4.07;;;;;;;26.52;35.21;99698.86;125652;1095;103067;-76